createdAt,value
2023-10-09T00:02:45.424Z,11.10
2023-10-09T00:05:48.411Z,18.70
2023-10-09T00:08:52.583Z,12.60
2023-10-09T00:11:58.490Z,13.90
2023-10-09T00:15:11.874Z,12.20
2023-10-09T00:18:15.779Z,8.70
2023-10-09T00:21:21.704Z,7.10
2023-10-09T00:24:25.361Z,6.30
2023-10-09T00:27:32.767Z,13.10
2023-10-09T00:30:36.897Z,8.90
2023-10-09T00:33:39.899Z,11.70
2023-10-09T00:36:51.794Z,10.70
2023-10-09T00:39:58.293Z,14.50
2023-10-09T00:43:07.537Z,9.60
2023-10-09T00:46:13.674Z,8.40
2023-10-09T00:49:17.212Z,10.30
2023-10-09T00:52:28.692Z,8.40
2023-10-09T00:55:44.681Z,8.00
2023-10-09T00:58:56.562Z,7.40
2023-10-09T01:02:06.406Z,7.10
2023-10-09T01:05:20.333Z,7.60
2023-10-09T01:08:31.826Z,9.10
2023-10-09T01:11:35.763Z,8.50
2023-10-09T01:14:39.063Z,10.70
2023-10-09T01:17:46.833Z,8.80
2023-10-09T01:20:50.492Z,9.70
2023-10-09T01:24:03.997Z,7.50
2023-10-09T01:27:16.976Z,9.10
2023-10-09T01:30:21.410Z,9.10
2023-10-09T01:33:28.893Z,10.30
2023-10-09T01:36:35.390Z,9.60
2023-10-09T01:39:43.564Z,9.80
2023-10-09T01:42:47.233Z,9.40
2023-10-09T01:45:53.297Z,8.80
2023-10-09T01:48:56.221Z,7.60
2023-10-09T01:52:09.173Z,9.70
2023-10-09T01:55:29.038Z,9.50
2023-10-09T01:58:33.612Z,9.00
2023-10-09T02:01:42.210Z,10.30
2023-10-09T02:04:46.303Z,9.30
2023-10-09T02:07:54.818Z,9.20
2023-10-09T02:10:57.815Z,9.40
2023-10-09T02:14:02.121Z,12.50
2023-10-09T02:17:10.910Z,9.70
2023-10-09T02:20:29.769Z,11.00
2023-10-09T02:23:40.623Z,11.40
2023-10-09T02:26:52.279Z,14.90
2023-10-09T02:29:57.722Z,15.50
2023-10-09T02:33:08.239Z,11.60
2023-10-09T02:36:14.414Z,11.60
2023-10-09T02:39:27.582Z,11.60
2023-10-09T02:42:30.759Z,10.20
2023-10-09T02:45:36.240Z,10.90
2023-10-09T02:48:43.836Z,9.60
2023-10-09T02:51:54.334Z,10.70
2023-10-09T02:55:00.911Z,11.40
2023-10-09T02:58:09.012Z,12.40
2023-10-09T03:01:15.812Z,14.40
2023-10-09T03:04:20.719Z,20.00
2023-10-09T03:07:24.747Z,11.00
2023-10-09T03:10:27.813Z,13.10
2023-10-09T03:13:34.310Z,10.00
2023-10-09T03:16:37.830Z,14.10
2023-10-09T03:19:44.972Z,9.50
2023-10-09T03:22:49.373Z,11.20
2023-10-09T03:25:52.247Z,12.60
2023-10-09T03:28:55.586Z,8.40
2023-10-09T03:31:58.667Z,8.70
2023-10-09T03:35:04.272Z,10.90
2023-10-09T03:38:18.407Z,11.60
2023-10-09T03:41:21.781Z,9.30
2023-10-09T03:44:24.736Z,10.00
2023-10-09T03:47:28.876Z,19.20
2023-10-09T03:50:37.087Z,11.70
2023-10-09T03:53:40.814Z,10.40
2023-10-09T03:56:43.863Z,12.80
2023-10-09T03:59:48.069Z,12.80
2023-10-09T04:02:51.967Z,15.50
2023-10-09T04:05:55.023Z,15.40
2023-10-09T04:09:28.933Z,11.20
2023-10-09T04:12:32.432Z,10.70
2023-10-09T04:15:36.991Z,11.70
2023-10-09T04:18:41.206Z,12.70
2023-10-09T04:21:44.300Z,13.40
2023-10-09T04:24:49.618Z,23.90
2023-10-09T04:28:18.790Z,19.00
2023-10-09T04:31:23.474Z,23.00
2023-10-09T04:34:35.862Z,12.80
2023-10-09T04:37:39.034Z,12.80
2023-10-09T04:40:41.890Z,12.10
2023-10-09T04:43:45.874Z,13.10
2023-10-09T04:47:20.055Z,11.90
2023-10-09T04:50:31.903Z,15.70
2023-10-09T04:53:45.269Z,17.70
2023-10-09T04:56:54.394Z,14.20
2023-10-09T04:59:59.760Z,18.90
2023-10-09T05:03:14.366Z,18.00
2023-10-09T05:06:36.337Z,16.40
2023-10-09T05:09:57.093Z,23.00
2023-10-09T05:13:00.127Z,32.30
2023-10-09T05:16:04.180Z,14.90
2023-10-09T05:19:08.095Z,19.40
2023-10-09T05:22:30.381Z,12.00
2023-10-09T05:25:52.040Z,11.30
2023-10-09T05:28:59.531Z,13.10
2023-10-09T05:32:16.844Z,15.60
2023-10-09T05:35:31.107Z,16.50
2023-10-09T05:38:37.209Z,15.00
2023-10-09T05:42:01.101Z,19.60
2023-10-09T05:45:18.238Z,17.60
2023-10-09T05:48:21.527Z,19.10
2023-10-09T05:51:43.189Z,27.70
2023-10-09T05:55:04.756Z,21.50
2023-10-09T05:58:10.341Z,12.90
2023-10-09T06:01:31.673Z,16.80
2023-10-09T06:04:56.016Z,12.40
2023-10-09T06:08:08.614Z,13.00
2023-10-09T06:11:48.885Z,14.40
2023-10-09T06:14:58.999Z,13.90
2023-10-09T06:18:22.200Z,10.70
2023-10-09T06:21:41.839Z,10.90
2023-10-09T06:24:53.930Z,11.70
2023-10-09T06:27:59.815Z,16.50
2023-10-09T06:31:22.933Z,15.10
2023-10-09T06:34:36.453Z,18.30
2023-10-09T06:37:59.568Z,17.60
2023-10-09T06:41:05.400Z,11.60
2023-10-09T06:44:18.951Z,14.20
2023-10-09T06:47:25.333Z,15.70
2023-10-09T06:50:48.317Z,12.20
2023-10-09T06:53:55.208Z,11.10
2023-10-09T07:00:36.211Z,16.60
2023-10-09T07:03:53.519Z,20.90
2023-10-09T07:06:58.137Z,20.40
2023-10-09T07:10:27.246Z,16.50
2023-10-09T07:13:30.881Z,14.70
2023-10-09T07:16:40.661Z,20.10
2023-10-09T07:19:44.788Z,17.50
2023-10-09T07:23:10.884Z,19.90
2023-10-09T07:26:19.928Z,14.20
2023-10-09T07:29:23.201Z,18.50
2023-10-09T07:32:28.758Z,15.70
2023-10-09T07:35:44.448Z,12.80
2023-10-09T07:38:56.404Z,16.00
2023-10-09T07:42:16.651Z,12.40
2023-10-09T07:45:19.732Z,16.10
2023-10-09T07:48:27.051Z,13.40
2023-10-09T07:51:33.064Z,13.30
2023-10-09T07:54:51.010Z,14.90
2023-10-09T07:57:54.777Z,16.50
2023-10-09T08:01:08.138Z,16.20
2023-10-09T08:04:15.422Z,14.10
2023-10-09T08:08:05.448Z,12.30
2023-10-09T08:11:02.660Z,16.80
2023-10-09T08:14:08.820Z,14.50
2023-10-09T08:17:31.917Z,17.10
2023-10-09T08:20:57.517Z,13.60
2023-10-09T08:24:06.179Z,19.00
2023-10-09T08:27:49.376Z,15.80
2023-10-09T08:31:04.658Z,13.10
2023-10-09T08:37:16.765Z,15.60
2023-10-09T08:40:21.067Z,9.70
2023-10-09T08:43:24.093Z,7.60
2023-10-09T08:46:28.977Z,8.60
2023-10-09T08:49:36.656Z,7.30
2023-10-09T08:52:40.772Z,8.30
2023-10-09T08:55:45.109Z,6.80
2023-10-09T08:58:48.274Z,5.00
2023-10-09T09:01:53.599Z,5.20
2023-10-09T09:04:56.779Z,5.70
2023-10-09T09:08:00.927Z,7.10
2023-10-09T09:11:16.008Z,5.40
2023-10-09T09:14:23.271Z,8.40
2023-10-09T09:17:34.432Z,6.80
2023-10-09T09:20:47.175Z,12.10
2023-10-09T09:23:58.934Z,7.70
2023-10-09T09:27:32.688Z,14.30
2023-10-09T09:30:36.671Z,7.10
2023-10-09T09:33:43.996Z,7.00
2023-10-09T09:37:00.027Z,6.00
2023-10-09T09:40:16.333Z,5.80
2023-10-09T09:43:23.455Z,6.00
2023-10-09T09:49:43.853Z,6.10
2023-10-09T09:52:48.139Z,5.70
2023-10-09T09:55:57.342Z,6.20
2023-10-09T09:59:07.783Z,5.50
2023-10-09T10:02:22.085Z,6.20
2023-10-09T10:05:30.900Z,5.50
2023-10-09T10:08:34.482Z,5.50
2023-10-09T10:11:47.292Z,9.20
2023-10-09T10:15:00.264Z,6.30
2023-10-09T10:18:06.454Z,7.20
2023-10-09T10:21:17.565Z,8.00
2023-10-09T10:24:29.949Z,12.50
2023-10-09T10:27:46.178Z,5.50
2023-10-09T10:30:52.252Z,7.00
2023-10-09T10:33:56.246Z,5.40
2023-10-09T10:36:59.614Z,5.20
2023-10-09T10:40:04.057Z,6.00
2023-10-09T10:43:33.005Z,4.40
2023-10-09T10:46:45.593Z,4.40
2023-10-09T10:49:59.822Z,3.70
2023-10-09T10:53:16.935Z,3.40
2023-10-09T10:56:20.213Z,4.10
2023-10-09T10:59:29.556Z,3.30
2023-10-09T11:02:34.775Z,3.20
2023-10-09T11:05:41.035Z,6.60
2023-10-09T11:08:56.084Z,2.70
2023-10-09T11:12:23.629Z,5.10
2023-10-09T11:15:47.805Z,10.40
2023-10-09T11:18:51.011Z,8.00
2023-10-09T11:22:20.361Z,57.90
2023-10-09T11:25:26.693Z,12.00
2023-10-09T11:28:49.833Z,17.40
2023-10-09T11:32:04.914Z,23.30
2023-10-09T11:35:15.895Z,11.70
2023-10-09T11:38:25.504Z,11.90
2023-10-09T11:41:35.308Z,12.00
2023-10-09T11:44:46.821Z,4.00
2023-10-09T11:48:01.116Z,6.90
2023-10-09T11:51:04.332Z,23.20
2023-10-09T11:54:09.901Z,13.70
2023-10-09T11:57:12.823Z,32.20
2023-10-09T12:00:30.081Z,60.50
2023-10-09T12:03:34.525Z,18.80
2023-10-09T12:06:38.060Z,155.30
2023-10-09T12:09:41.382Z,28.70
2023-10-09T12:12:47.773Z,128.30
2023-10-09T12:15:53.306Z,44.90
2023-10-09T12:18:56.350Z,78.90
2023-10-09T12:22:01.483Z,17.00
2023-10-09T12:25:10.457Z,75.20
2023-10-09T12:28:13.812Z,10.30
2023-10-09T12:31:20.995Z,8.40
2023-10-09T12:34:27.762Z,4.40
2023-10-09T12:40:37.200Z,6.70
2023-10-09T12:43:40.247Z,5.90
2023-10-09T12:46:48.831Z,165.80
2023-10-09T12:49:55.305Z,22.40
2023-10-09T12:53:08.589Z,5.00
2023-10-09T12:56:13.363Z,3.80
2023-10-09T12:59:16.739Z,9.80
2023-10-09T13:02:30.145Z,5.90
2023-10-09T13:05:33.673Z,3.60
2023-10-09T13:08:36.579Z,3.30
2023-10-09T13:11:41.708Z,7.30
2023-10-09T13:14:44.877Z,21.50
2023-10-09T13:17:48.695Z,4.30
2023-10-09T13:20:51.680Z,3.80
2023-10-09T13:23:58.822Z,3.90
2023-10-09T13:27:05.585Z,3.50
2023-10-09T13:30:10.954Z,3.30
2023-10-09T13:33:18.395Z,3.10
2023-10-09T13:36:37.491Z,16.50
2023-10-09T13:39:53.182Z,5.70
2023-10-09T13:43:02.906Z,3.80
2023-10-09T13:46:05.859Z,11.80
2023-10-09T13:49:13.338Z,8.60
2023-10-09T13:52:19.511Z,6.00
2023-10-09T13:55:22.422Z,11.10
2023-10-09T13:58:25.461Z,8.80
2023-10-09T14:01:28.606Z,10.30
2023-10-09T14:04:31.637Z,8.70
2023-10-09T14:07:36.117Z,5.40
2023-10-09T14:10:40.220Z,3.80
2023-10-09T14:13:43.824Z,2.70
2023-10-09T14:16:47.768Z,5.60
2023-10-09T14:19:52.601Z,4.20
2023-10-09T14:22:55.678Z,4.10
2023-10-09T14:26:03.174Z,21.40
2023-10-09T14:29:07.992Z,14.80
2023-10-09T14:32:14.372Z,49.20
2023-10-09T14:35:17.413Z,15.60
2023-10-09T14:38:27.972Z,7.10
2023-10-09T14:41:34.460Z,23.30
2023-10-09T14:44:39.446Z,26.80
2023-10-09T14:47:43.416Z,36.30
2023-10-09T14:50:50.593Z,36.50
2023-10-09T14:53:58.605Z,13.50
2023-10-09T14:57:01.822Z,23.40
2023-10-09T15:00:14.921Z,9.90
2023-10-09T15:03:21.173Z,5.70
2023-10-09T15:06:31.550Z,4.80
2023-10-09T15:09:37.703Z,21.60
2023-10-09T15:12:43.955Z,5.80
2023-10-09T15:15:52.663Z,10.60
2023-10-09T15:18:58.485Z,4.10
2023-10-09T15:22:11.118Z,5.00
2023-10-09T15:25:16.162Z,7.80
2023-10-09T15:28:23.960Z,10.70
2023-10-09T15:31:28.584Z,15.20
2023-10-09T15:34:32.723Z,15.90
2023-10-09T15:37:35.573Z,33.60
2023-10-09T15:40:40.315Z,50.70
2023-10-09T15:43:45.417Z,41.50
2023-10-09T15:46:48.458Z,24.80
2023-10-09T15:49:53.947Z,33.30
2023-10-09T15:52:56.974Z,34.70
2023-10-09T15:56:02.376Z,69.80
2023-10-09T15:59:06.749Z,77.30
2023-10-09T16:02:09.742Z,81.30
2023-10-09T16:05:13.231Z,91.20
2023-10-09T16:08:16.452Z,68.80
2023-10-09T16:11:26.478Z,64.30
2023-10-09T16:14:29.440Z,109.90
2023-10-09T16:17:33.634Z,79.60
2023-10-09T16:20:38.547Z,65.50
2023-10-09T16:23:43.335Z,59.00
2023-10-09T16:26:52.254Z,62.20
2023-10-09T16:29:55.807Z,44.80
2023-10-09T16:32:58.988Z,30.00
2023-10-09T16:36:02.026Z,26.40
2023-10-09T16:39:05.379Z,39.80
2023-10-09T16:42:10.890Z,28.60
2023-10-09T16:45:17.182Z,142.70
2023-10-09T16:48:20.247Z,142.90
2023-10-09T16:51:23.270Z,28.40
2023-10-09T16:54:27.770Z,27.00
2023-10-09T16:57:30.839Z,33.60
2023-10-09T17:00:36.652Z,31.30
2023-10-09T17:03:43.762Z,31.40
2023-10-09T17:06:52.489Z,86.30
2023-10-09T17:09:57.393Z,69.30
2023-10-09T17:13:01.859Z,63.40
2023-10-09T17:16:04.806Z,74.30
2023-10-09T17:19:08.019Z,66.90
2023-10-09T17:22:13.598Z,64.60
2023-10-09T17:25:18.002Z,60.40
2023-10-09T17:28:20.890Z,64.10
2023-10-09T17:31:28.345Z,66.50
2023-10-09T17:34:34.994Z,53.00
2023-10-09T17:37:40.063Z,36.90
2023-10-09T17:40:52.967Z,27.80
2023-10-09T17:43:59.141Z,28.20
2023-10-09T17:47:02.230Z,35.60
2023-10-09T17:50:07.319Z,56.30
2023-10-09T17:53:11.383Z,50.90
2023-10-09T17:56:19.630Z,50.40
2023-10-09T18:02:29.208Z,62.60
2023-10-09T18:05:34.473Z,62.20
2023-10-09T18:08:37.609Z,60.20
2023-10-09T18:11:40.913Z,141.80
2023-10-09T18:14:44.585Z,120.40
2023-10-09T18:17:47.802Z,76.50
2023-10-09T18:20:50.717Z,83.20
2023-10-09T18:23:57.062Z,35.20
2023-10-09T18:26:59.905Z,76.50
2023-10-09T18:30:02.871Z,129.40
2023-10-09T18:33:06.261Z,119.50
2023-10-09T18:36:10.187Z,119.00
2023-10-09T18:39:13.945Z,78.80
2023-10-09T18:42:17.155Z,58.60
2023-10-09T18:45:19.958Z,48.90
2023-10-09T18:48:29.030Z,37.80
2023-10-09T18:51:33.653Z,52.90
2023-10-09T18:54:37.237Z,36.80
2023-10-09T18:57:41.322Z,40.20
2023-10-09T19:00:50.143Z,80.00
2023-10-09T19:03:54.576Z,43.80
2023-10-09T19:06:59.198Z,44.20
2023-10-09T19:10:02.795Z,44.30
2023-10-09T19:13:11.156Z,39.90
2023-10-09T19:16:14.150Z,55.80
2023-10-09T19:19:17.174Z,47.80
2023-10-09T19:22:21.171Z,41.30
2023-10-09T19:25:28.589Z,51.40
2023-10-09T19:28:31.624Z,162.50
2023-10-09T19:31:34.467Z,91.30
2023-10-09T19:34:38.129Z,74.50
2023-10-09T19:37:43.381Z,69.80
2023-10-09T19:40:53.379Z,56.90
2023-10-09T19:43:56.398Z,41.70
2023-10-09T19:46:59.392Z,30.90
2023-10-09T19:50:04.027Z,58.60
2023-10-09T19:53:06.873Z,51.20
2023-10-09T19:56:11.743Z,28.40
2023-10-09T19:59:15.984Z,26.80
2023-10-09T20:02:19.175Z,19.60
2023-10-09T20:05:23.969Z,16.70
2023-10-09T20:08:28.878Z,29.50
2023-10-09T20:11:32.485Z,38.00
2023-10-09T20:14:35.390Z,62.40
2023-10-09T20:17:38.342Z,79.80
2023-10-09T20:20:47.587Z,72.80
2023-10-09T20:23:50.457Z,88.80
2023-10-09T20:26:53.294Z,105.50
2023-10-09T20:29:57.451Z,105.00
2023-10-09T20:33:00.754Z,88.10
2023-10-09T20:36:13.802Z,46.80
2023-10-09T20:39:17.702Z,69.00
2023-10-09T20:42:22.936Z,69.20
2023-10-09T20:45:26.017Z,44.40
2023-10-09T20:48:28.824Z,21.90
2023-10-09T20:51:42.552Z,29.80
2023-10-09T20:54:53.733Z,39.60
2023-10-09T20:57:58.439Z,51.40
2023-10-09T21:01:12.906Z,91.50
2023-10-09T21:04:15.896Z,95.40
2023-10-09T21:07:19.175Z,94.10
2023-10-09T21:10:23.079Z,102.30
2023-10-09T21:13:27.819Z,92.20
2023-10-09T21:16:30.679Z,85.10
2023-10-09T21:19:33.690Z,78.00
2023-10-09T21:22:38.910Z,71.60
2023-10-09T21:25:41.814Z,90.90
2023-10-09T21:28:45.423Z,51.60
2023-10-09T21:31:48.351Z,38.50
2023-10-09T21:34:51.340Z,87.10
2023-10-09T21:38:01.254Z,100.90
2023-10-09T21:41:18.211Z,105.50
2023-10-09T21:44:21.729Z,99.30
2023-10-09T21:47:24.824Z,98.90
2023-10-09T21:50:29.619Z,92.40
2023-10-09T21:53:32.483Z,94.20
2023-10-09T21:56:35.794Z,84.20
2023-10-09T21:59:38.659Z,79.60
2023-10-09T22:02:51.048Z,80.00
2023-10-09T22:05:57.162Z,67.20
2023-10-09T22:09:00.210Z,62.70
2023-10-09T22:12:03.152Z,51.70
2023-10-09T22:15:06.817Z,55.70
2023-10-09T22:18:12.569Z,60.60
2023-10-09T22:21:17.314Z,47.70
2023-10-09T22:24:22.081Z,33.50
2023-10-09T22:27:25.166Z,31.20
2023-10-09T22:30:35.028Z,28.90
2023-10-09T22:33:47.030Z,31.20
2023-10-09T22:36:55.009Z,25.20
2023-10-09T22:40:02.230Z,26.90
2023-10-09T22:43:15.775Z,25.50
2023-10-09T22:46:20.750Z,24.80
2023-10-09T22:49:26.264Z,22.60
2023-10-09T22:52:35.844Z,20.00
2023-10-09T22:55:45.384Z,20.90
2023-10-09T22:58:52.507Z,20.90
2023-10-09T23:02:01.796Z,23.50
2023-10-09T23:05:05.825Z,26.10
2023-10-09T23:08:17.787Z,36.00
2023-10-09T23:11:26.764Z,36.50
2023-10-09T23:14:29.840Z,41.70
2023-10-09T23:17:49.415Z,36.90
2023-10-09T23:21:12.458Z,35.60
2023-10-09T23:24:27.087Z,35.40
2023-10-09T23:27:39.462Z,27.40
2023-10-09T23:30:45.733Z,31.80
2023-10-09T23:33:58.372Z,35.50
2023-10-09T23:37:05.172Z,20.20
2023-10-09T23:40:17.735Z,16.10
2023-10-09T23:43:29.398Z,13.20
2023-10-09T23:46:37.331Z,14.10
2023-10-09T23:49:40.291Z,29.50
2023-10-09T23:52:45.727Z,30.90
2023-10-09T23:55:53.006Z,26.20
2023-10-09T23:58:56.585Z,28.10
